Time;durP1;ratioP1;P1;durP2;ratioP2;P2;SDS_P1;SDS_P2;PMS_P1;PMS_P2;Temp;Humidity;BMP_temperature;BMP_pressure;BME280_temperature;BME280_humidity;BME280_pressure;Samples;Min_cycle;Max_cycle;Signal;HPM_P1;HPM_P2
2023/02/19 00:01:30;;;;;;;3.20;1.50;;;9.70;99.90;9.60;100363.00;;;;4910816;28;88037;-75
2023/02/19 00:03:59;;;;;;;2.63;1.47;;;9.70;99.90;9.70;100364.00;;;;4878860;28;90369;-72
2023/02/19 00:06:28;;;;;;;2.13;1.67;;;9.70;99.90;9.70;100361.00;;;;4879990;28;88845;-74
2023/02/19 00:08:54;;;;;;;4.97;1.57;;;9.70;99.90;9.70;100357.00;;;;4910887;28;87703;-74
2023/02/19 00:11:23;;;;;;;2.93;1.60;;;9.70;99.90;9.60;100353.00;;;;4910678;28;92558;-74
2023/02/19 00:13:52;;;;;;;1.97;1.50;;;9.70;99.90;9.60;100370.00;;;;4914102;28;88055;-73
2023/02/19 00:16:22;;;;;;;3.10;2.10;;;9.70;99.90;9.50;100366.00;;;;4898734;28;88061;-75
2023/02/19 00:18:49;;;;;;;1.53;1.23;;;9.60;99.90;9.40;100372.00;;;;4911360;28;101846;-75
2023/02/19 00:21:15;;;;;;;2.30;1.33;;;9.50;99.90;9.30;100360.00;;;;4912406;28;109709;-78
2023/02/19 00:23:41;;;;;;;2.30;1.77;;;9.40;99.90;9.20;100380.00;;;;4895397;28;88597;-71
2023/02/19 00:26:11;;;;;;;1.67;1.30;;;9.40;99.90;9.10;100379.00;;;;4889410;28;109124;-72
2023/02/19 00:28:38;;;;;;;1.30;1.20;;;9.50;99.90;9.10;100373.00;;;;4908267;28;88001;-70
2023/02/19 00:31:29;;;;;;;1.20;1.10;;;9.50;99.90;9.00;100376.00;;;;4910735;28;89250;-72
2023/02/19 00:33:58;;;;;;;1.53;1.27;;;9.20;99.90;9.00;100368.00;;;;4882986;28;90942;-71
2023/02/19 00:36:26;;;;;;;1.33;1.20;;;9.10;99.90;8.90;100363.00;;;;4909373;28;101290;-71
2023/02/19 00:38:52;;;;;;;2.83;1.47;;;9.10;99.90;8.90;100360.00;;;;4911934;28;87826;-70
2023/02/19 00:41:19;;;;;;;3.20;1.73;;;9.00;99.90;8.90;100352.00;;;;4909271;28;117553;-72
2023/02/19 00:44:00;;;;;;;2.50;1.73;;;9.00;99.90;8.80;100351.00;;;;4909534;28;89060;-70
2023/02/19 00:46:45;;;;;;;2.13;1.30;;;9.00;99.90;8.80;100347.00;;;;4895384;28;87769;-74
2023/02/19 00:49:21;;;;;;;2.27;1.57;;;9.50;99.90;8.80;100342.00;;;;4890943;28;87392;-72
2023/02/19 00:51:50;;;;;;;2.80;1.60;;;9.00;99.90;8.80;100348.00;;;;4891847;28;88230;-72
2023/02/19 00:54:16;;;;;;;1.33;1.07;;;8.90;99.90;8.80;100357.00;;;;4912059;28;107602;-72
2023/02/19 00:56:42;;;;;;;2.17;1.40;;;8.90;99.90;8.80;100359.00;;;;4906530;28;88745;-73
2023/02/19 00:59:08;;;;;;;1.63;1.33;;;8.90;99.90;8.80;100358.00;;;;4890460;28;102266;-71
2023/02/19 01:01:34;;;;;;;1.60;0.93;;;8.90;99.90;8.80;100353.00;;;;4913128;28;111588;-71
2023/02/19 01:04:00;;;;;;;1.20;0.80;;;8.90;99.90;8.70;100349.00;;;;4911357;28;118544;-72
2023/02/19 01:06:28;;;;;;;0.70;0.40;;;8.80;99.90;8.70;100342.00;;;;4914938;28;110660;-71
2023/02/19 01:08:55;;;;;;;3.60;0.97;;;8.80;99.90;8.60;100354.00;;;;4916530;28;87992;-73
2023/02/19 01:11:20;;;;;;;1.07;0.40;;;8.80;99.90;8.50;100346.00;;;;4897001;28;89640;-72
2023/02/19 01:13:46;;;;;;;0.87;0.47;;;8.60;99.90;8.50;100346.00;;;;4912600;28;118950;-72
2023/02/19 01:16:16;;;;;;;0.60;0.40;;;8.60;99.90;8.40;100346.00;;;;4913693;28;109686;-73
2023/02/19 01:18:43;;;;;;;1.03;0.47;;;8.50;99.90;8.40;100350.00;;;;4911674;28;87995;-72
2023/02/19 01:21:22;;;;;;;1.40;0.43;;;8.50;99.90;8.40;100323.00;;;;4911907;28;89796;-73
2023/02/19 01:23:50;;;;;;;0.30;0.30;;;8.60;99.90;8.40;100322.00;;;;4909169;28;89056;-72
2023/02/19 01:26:23;;;;;;;1.17;0.40;;;8.50;99.90;8.30;100319.00;;;;4912963;28;94524;-73
2023/02/19 01:28:48;;;;;;;3.37;0.50;;;8.40;99.90;8.30;100298.00;;;;4893930;28;87987;-76
2023/02/19 01:31:18;;;;;;;0.30;0.20;;;8.40;99.90;8.30;100304.00;;;;4893900;28;118039;-71
2023/02/19 01:33:51;;;;;;;0.30;0.20;;;8.40;99.90;8.30;100309.00;;;;4912370;28;87997;-72
2023/02/19 01:36:17;;;;;;;1.43;0.60;;;8.40;99.90;8.20;100297.00;;;;4912014;28;88845;-75
2023/02/19 01:38:44;;;;;;;0.47;0.43;;;8.40;99.90;8.20;100288.00;;;;4897131;28;87193;-74
2023/02/19 01:41:14;;;;;;;0.50;0.40;;;8.30;99.90;8.20;100285.00;;;;4893020;28;89537;-71
2023/02/19 01:44:03;;;;;;;0.40;0.20;;;8.30;99.90;8.20;100272.00;;;;4911599;28;89336;-74
2023/02/19 01:46:32;;;;;;;0.83;0.60;;;8.30;99.90;8.20;100280.00;;;;4913969;28;88784;-73
2023/02/19 01:49:05;;;;;;;1.17;0.43;;;8.30;99.90;8.20;100276.00;;;;4897111;28;87778;-74
2023/02/19 01:51:35;;;;;;;0.73;0.43;;;8.30;99.90;8.20;100259.00;;;;4901286;28;88398;-71
2023/02/19 01:54:04;;;;;;;0.43;0.30;;;8.30;99.90;8.10;100267.00;;;;4901504;28;104401;-71
2023/02/19 01:56:33;;;;;;;2.70;0.50;;;8.30;99.90;8.20;100270.00;;;;4913130;28;89542;-74
2023/02/19 01:59:00;;;;;;;0.50;0.43;;;8.30;99.90;8.20;100261.00;;;;4913753;28;94465;-73
2023/02/19 02:01:26;;;;;;;0.63;0.33;;;8.30;99.90;8.20;100265.00;;;;4914141;28;89339;-72
2023/02/19 02:03:52;;;;;;;0.43;0.37;;;8.30;99.90;8.10;100259.00;;;;4915866;28;116475;-72
2023/02/19 02:06:28;;;;;;;0.87;0.80;;;8.30;99.90;8.10;100252.00;;;;4910436;28;95686;-72
2023/02/19 02:11:51;;;;;;;0.40;0.40;;;8.30;99.90;8.10;100240.00;;;;4910771;28;88753;-72
2023/02/19 02:14:20;;;;;;;0.80;0.80;;;8.30;99.90;8.10;100238.00;;;;4915291;28;103898;-70
2023/02/19 02:17:11;;;;;;;1.53;0.90;;;8.30;99.90;8.10;100248.00;;;;4910309;28;93675;-72
2023/02/19 02:19:54;;;;;;;1.50;0.83;;;8.30;99.90;8.10;100247.00;;;;4897828;28;101756;-70
2023/02/19 02:22:28;;;;;;;1.90;0.93;;;8.30;99.90;8.10;100253.00;;;;4912161;28;100478;-69
2023/02/19 02:25:18;;;;;;;5.27;0.87;;;8.20;99.90;8.10;100245.00;;;;4897254;28;88032;-68
2023/02/19 02:28:38;;;;;;;2.90;0.90;;;8.30;99.90;8.10;100236.00;;;;4910134;28;103198;-67
2023/02/19 02:31:08;;;;;;;2.43;1.00;;;8.20;99.90;8.10;100239.00;;;;4912874;28;87279;-67
2023/02/19 02:33:46;;;;;;;1.07;0.97;;;8.20;99.90;8.00;100235.00;;;;4909441;28;103596;-68
2023/02/19 02:36:16;;;;;;;0.73;0.73;;;8.20;99.90;8.10;100234.00;;;;4912212;28;106098;-68
2023/02/19 02:38:45;;;;;;;1.63;0.90;;;8.20;99.90;8.10;100224.00;;;;4892488;28;100583;-70
2023/02/19 02:41:13;;;;;;;0.70;0.70;;;8.20;99.90;8.10;100208.00;;;;4895451;28;88050;-69
2023/02/19 02:43:38;;;;;;;2.10;1.20;;;8.40;99.90;8.10;100199.00;;;;4910448;28;102022;-68
2023/02/19 02:46:05;;;;;;;2.53;1.00;;;8.30;99.90;8.00;100191.00;;;;4912344;28;117451;-69
2023/02/19 02:48:52;;;;;;;0.63;0.63;;;8.20;99.90;8.00;100196.00;;;;4910031;28;103499;-67
2023/02/19 02:51:28;;;;;;;2.67;1.10;;;8.40;99.90;8.00;100190.00;;;;4896822;28;89265;-68
2023/02/19 02:57:08;;;;;;;1.37;0.87;;;8.10;99.90;8.00;100188.00;;;;4911281;28;87781;-67
2023/02/19 02:59:37;;;;;;;1.40;1.00;;;8.20;99.90;8.00;100175.00;;;;4911250;28;87936;-66
2023/02/19 03:02:13;;;;;;;3.40;1.47;;;8.10;99.90;8.00;100176.00;;;;4881726;28;100151;-67
2023/02/19 03:08:09;;;;;;;2.33;1.67;;;8.20;99.90;8.10;100173.00;;;;4893340;28;88465;-69
2023/02/19 03:10:38;;;;;;;2.53;1.90;;;8.20;99.90;8.10;100175.00;;;;4912256;28;88171;-69
2023/02/19 03:19:17;;;;;;;3.93;2.10;;;8.20;99.90;8.20;100152.00;;;;4907780;28;87849;-67
2023/02/19 03:21:50;;;;;;;3.80;2.20;;;8.30;99.90;8.20;100154.00;;;;4896926;28;87980;-69
2023/02/19 03:27:05;;;;;;;4.03;2.40;;;8.30;99.90;8.20;100156.00;;;;4898002;28;88100;-71
2023/02/19 03:29:34;;;;;;;4.33;3.23;;;8.40;99.90;8.30;100141.00;;;;4913118;28;117771;-71
2023/02/19 03:32:08;;;;;;;3.97;2.73;;;8.40;99.90;8.30;100144.00;;;;4911375;28;89039;-71
2023/02/19 03:34:40;;;;;;;3.80;2.47;;;8.40;99.90;8.30;100137.00;;;;4895241;28;88102;-70
2023/02/19 03:37:23;;;;;;;6.13;2.60;;;8.40;99.90;8.30;100138.00;;;;4891989;28;110878;-69
2023/02/19 03:39:49;;;;;;;4.60;2.57;;;8.80;99.90;8.30;100142.00;;;;4910779;28;88397;-70
2023/02/19 03:42:26;;;;;;;4.20;2.37;;;8.40;99.90;8.30;100137.00;;;;4895538;28;96966;-70
2023/02/19 03:45:33;;;;;;;3.53;1.97;;;8.40;99.90;8.30;100137.00;;;;4907845;28;93056;-67
2023/02/19 03:48:30;;;;;;;3.17;2.00;;;8.50;99.90;8.30;100143.00;;;;4911038;28;89540;-69
2023/02/19 03:51:26;;;;;;;2.90;2.20;;;8.40;99.90;8.30;100138.00;;;;4894948;28;110969;-71
2023/02/19 03:54:11;;;;;;;5.60;2.30;;;8.40;99.90;8.30;100133.00;;;;4896887;28;87848;-68
2023/02/19 03:56:53;;;;;;;1.90;1.67;;;8.40;99.90;8.30;100128.00;;;;4910172;28;87787;-69
2023/02/19 03:59:42;;;;;;;3.40;2.17;;;8.40;99.90;8.30;100130.00;;;;4909948;28;113053;-69
2023/02/19 04:02:18;;;;;;;2.37;2.03;;;8.40;99.90;8.30;100130.00;;;;4897765;28;95775;-69
2023/02/19 04:05:08;;;;;;;2.13;1.87;;;8.40;99.90;8.30;100121.00;;;;4898760;28;87890;-71
2023/02/19 04:07:39;;;;;;;3.37;1.73;;;8.40;99.90;8.30;100115.00;;;;4910341;28;88039;-69
2023/02/19 04:10:06;;;;;;;2.13;1.50;;;8.40;99.90;8.30;100124.00;;;;4892745;28;88047;-68
2023/02/19 04:12:35;;;;;;;1.57;1.47;;;8.40;99.90;8.30;100118.00;;;;4910874;28;105917;-69
2023/02/19 04:15:16;;;;;;;2.20;1.37;;;8.40;99.90;8.20;100122.00;;;;4891944;28;105201;-67
2023/02/19 04:17:52;;;;;;;2.23;1.40;;;8.40;99.90;8.20;100120.00;;;;4913293;28;101199;-68
2023/02/19 04:20:21;;;;;;;1.90;1.23;;;8.50;99.90;8.20;100115.00;;;;4908809;28;104339;-70
2023/02/19 04:22:47;;;;;;;1.20;1.00;;;8.60;99.90;8.20;100118.00;;;;4906898;28;108711;-68
2023/02/19 04:25:13;;;;;;;2.17;1.67;;;8.30;99.90;8.20;100129.00;;;;4910339;28;110643;-69
2023/02/19 04:27:39;;;;;;;1.90;1.20;;;8.30;99.90;8.20;100122.00;;;;4908915;28;107305;-69
2023/02/19 04:30:09;;;;;;;2.40;1.37;;;8.30;99.90;8.20;100122.00;;;;4913968;28;98560;-68
2023/02/19 04:32:35;;;;;;;2.33;1.30;;;8.30;99.90;8.20;100124.00;;;;4892933;28;89868;-67
2023/02/19 04:35:01;;;;;;;1.13;0.93;;;8.30;99.90;8.20;100137.00;;;;4911309;28;101472;-68
2023/02/19 04:37:26;;;;;;;2.53;1.50;;;8.30;99.90;8.20;100122.00;;;;4908762;28;107602;-70
2023/02/19 04:39:52;;;;;;;2.93;1.40;;;8.30;99.90;8.20;100131.00;;;;4907642;28;118877;-69
2023/02/19 04:42:18;;;;;;;1.73;1.30;;;8.30;99.90;8.20;100136.00;;;;4912127;28;117180;-69
2023/02/19 04:44:43;;;;;;;2.13;1.70;;;8.30;99.90;8.20;100128.00;;;;4910489;28;109943;-68
2023/02/19 04:47:09;;;;;;;2.10;1.37;;;8.30;99.90;8.20;100135.00;;;;4905737;28;107495;-69
2023/02/19 04:49:35;;;;;;;2.67;1.13;;;8.30;99.90;8.20;100125.00;;;;4911429;28;117930;-69
2023/02/19 04:52:00;;;;;;;1.57;1.27;;;8.30;99.90;8.20;100124.00;;;;4909070;28;118443;-68
2023/02/19 04:54:26;;;;;;;1.53;1.10;;;8.30;99.90;8.20;100119.00;;;;4907596;28;110588;-68
2023/02/19 04:56:52;;;;;;;1.70;1.13;;;8.30;99.90;8.20;100125.00;;;;4904906;28;107901;-68
2023/02/19 04:59:17;;;;;;;1.70;1.37;;;8.30;99.90;8.20;100121.00;;;;4911075;28;117398;-67
2023/02/19 05:01:43;;;;;;;1.60;1.00;;;8.30;99.90;8.20;100135.00;;;;4905153;28;112110;-69
2023/02/19 05:04:08;;;;;;;1.37;1.20;;;8.30;99.90;8.20;100140.00;;;;4909779;28;110197;-68
2023/02/19 05:06:34;;;;;;;3.17;1.20;;;8.30;99.90;8.30;100137.00;;;;4905126;28;108124;-69
2023/02/19 05:09:00;;;;;;;1.90;1.63;;;8.40;99.90;8.30;100137.00;;;;4906686;28;117193;-68
2023/02/19 05:11:25;;;;;;;1.90;1.37;;;8.40;99.90;8.30;100130.00;;;;4906443;28;116970;-68
2023/02/19 05:13:51;;;;;;;2.17;1.17;;;8.40;99.90;8.30;100120.00;;;;4906096;28;100111;-69
2023/02/19 05:16:17;;;;;;;2.07;1.10;;;8.40;99.90;8.30;100126.00;;;;4906026;28;107661;-68
2023/02/19 05:18:44;;;;;;;1.13;0.97;;;8.40;99.90;8.30;100123.00;;;;4897390;28;115816;-67
2023/02/19 05:21:11;;;;;;;3.00;1.03;;;8.00;99.90;8.30;100112.00;;;;4909276;28;87842;-68
2023/02/19 05:23:37;;;;;;;1.87;1.30;;;8.40;99.90;8.20;100118.00;;;;4905472;28;101672;-68
2023/02/19 05:26:08;;;;;;;1.80;1.03;;;8.40;99.90;8.20;100121.00;;;;4906156;28;88937;-68
2023/02/19 05:28:34;;;;;;;0.93;0.63;;;8.70;99.90;8.20;100107.00;;;;4907929;28;88996;-67
2023/02/19 05:31:05;;;;;;;0.80;0.80;;;8.20;99.90;8.10;100106.00;;;;4910053;28;110312;-66
2023/02/19 05:33:31;;;;;;;4.17;0.90;;;8.30;99.90;8.10;100105.00;;;;4907088;28;88937;-65
2023/02/19 05:35:57;;;;;;;1.60;1.00;;;8.20;99.90;8.10;100106.00;;;;4912167;28;87908;-66
2023/02/19 05:38:23;;;;;;;1.73;0.97;;;8.20;99.90;8.00;100109.00;;;;4909438;28;108823;-66
2023/02/19 05:40:49;;;;;;;0.77;0.77;;;8.10;99.90;8.00;100099.00;;;;4882436;28;118374;-66
2023/02/19 05:43:16;;;;;;;0.90;0.77;;;8.10;99.90;8.00;100109.00;;;;4911132;28;87878;-68
2023/02/19 05:45:42;;;;;;;2.33;0.67;;;8.10;99.90;7.90;100111.00;;;;4908101;28;88242;-67
2023/02/19 05:48:09;;;;;;;0.93;0.93;;;8.10;99.90;8.00;100122.00;;;;4905074;28;88527;-66
2023/02/19 05:50:36;;;;;;;0.83;0.73;;;8.10;99.90;8.00;100124.00;;;;4890245;28;89071;-69
2023/02/19 05:53:03;;;;;;;1.53;0.77;;;8.20;99.90;8.00;100125.00;;;;4910333;28;87825;-68
2023/02/19 05:55:34;;;;;;;0.67;0.47;;;8.10;99.90;7.90;100130.00;;;;4911753;28;86993;-67
2023/02/19 05:58:00;;;;;;;1.07;0.93;;;8.70;99.90;8.00;100165.00;;;;4910364;28;91280;-68
2023/02/19 06:00:26;;;;;;;0.60;0.40;;;8.10;99.90;7.90;100150.00;;;;4913333;28;117574;-69
2023/02/19 06:02:53;;;;;;;1.03;0.63;;;8.10;99.90;7.90;100178.00;;;;4910684;28;88946;-67
2023/02/19 06:05:18;;;;;;;0.40;0.40;;;7.70;99.90;7.70;100187.00;;;;4912485;28;87847;-68
2023/02/19 06:07:44;;;;;;;1.23;0.30;;;7.90;99.90;7.70;100190.00;;;;4905812;28;109876;-67
2023/02/19 06:10:11;;;;;;;0.60;0.57;;;7.80;99.90;7.60;100192.00;;;;4907542;28;89045;-68
2023/02/19 06:12:38;;;;;;;0.20;0.20;;;7.90;99.90;7.40;100219.00;;;;4911770;28;111211;-66
2023/02/19 06:15:05;;;;;;;0.40;0.37;;;7.60;99.90;7.30;100218.00;;;;4906651;28;103773;-67
2023/02/19 06:17:32;;;;;;;0.33;0.33;;;7.50;99.90;7.10;100224.00;;;;4909740;28;88689;-66
2023/02/19 06:19:58;;;;;;;0.43;0.13;;;7.40;99.90;7.00;100228.00;;;;4907062;28;109649;-66
2023/02/19 06:22:24;;;;;;;0.00;0.00;;;7.20;99.90;6.80;100225.00;;;;4905845;28;109985;-65
2023/02/19 06:24:49;;;;;;;1.10;0.40;;;7.10;99.90;6.70;100237.00;;;;4905524;28;99461;-66
2023/02/19 06:27:15;;;;;;;0.90;0.27;;;7.30;99.90;6.60;100236.00;;;;4904535;28;117334;-66
2023/02/19 06:29:41;;;;;;;0.10;0.10;;;6.80;99.90;6.50;100243.00;;;;4908909;28;117682;-65
2023/02/19 06:32:07;;;;;;;0.13;0.10;;;6.70;99.90;6.40;100246.00;;;;4905408;28;111587;-65
2023/02/19 06:34:33;;;;;;;0.93;0.43;;;7.30;99.90;6.30;100250.00;;;;4908041;28;92408;-66
2023/02/19 06:37:00;;;;;;;0.10;0.10;;;6.50;99.90;6.20;100268.00;;;;4901594;28;87957;-65
2023/02/19 06:39:26;;;;;;;0.20;0.10;;;6.70;99.90;6.10;100265.00;;;;4909568;28;88136;-66
2023/02/19 06:41:56;;;;;;;0.20;0.20;;;6.30;99.90;6.00;100272.00;;;;4905021;28;110199;-65
2023/02/19 06:44:22;;;;;;;0.10;0.10;;;6.70;99.90;5.90;100281.00;;;;4906470;28;89148;-65
2023/02/19 06:46:47;;;;;;;0.20;0.20;;;6.20;99.90;5.80;100291.00;;;;4908254;28;117731;-65
2023/02/19 06:49:14;;;;;;;0.37;0.17;;;6.80;99.90;5.80;100284.00;;;;4909273;28;117588;-65
2023/02/19 06:51:40;;;;;;;0.63;0.20;;;6.40;99.90;5.80;100281.00;;;;4907111;28;89125;-66
2023/02/19 06:54:05;;;;;;;0.17;0.17;;;6.00;99.90;5.70;100297.00;;;;4906924;28;96337;-67
2023/02/19 06:56:40;;;;;;;0.10;0.10;;;6.80;99.90;5.70;100296.00;;;;4802611;28;10000524;-68
2023/02/19 06:59:13;;;;;;;0.30;0.30;;;5.90;99.90;5.70;100305.00;;;;4396887;28;10000807;-68
2023/02/19 07:01:39;;;;;;;1.03;0.50;;;5.80;99.90;5.70;100303.00;;;;4888437;28;88028;-67
2023/02/19 07:04:06;;;;;;;0.37;0.20;;;6.20;99.90;5.70;100303.00;;;;4909173;28;109822;-67
2023/02/19 07:06:33;;;;;;;0.40;0.40;;;5.80;99.90;5.70;100301.00;;;;4909579;28;88010;-65
2023/02/19 07:08:59;;;;;;;0.47;0.47;;;5.80;99.90;5.70;100302.00;;;;4909508;28;109938;-67
2023/02/19 07:11:28;;;;;;;1.63;0.77;;;5.80;99.90;5.70;100324.00;;;;4908414;28;88264;-67
2023/02/19 07:13:59;;;;;;;0.50;0.50;;;5.80;99.90;5.70;100336.00;;;;4891980;28;90361;-67
2023/02/19 07:16:25;;;;;;;0.77;0.60;;;5.80;99.90;5.70;100343.00;;;;4885788;28;89022;-66
2023/02/19 07:18:51;;;;;;;2.03;1.00;;;5.80;99.90;5.60;100354.00;;;;4890776;28;88459;-66
2023/02/19 07:21:17;;;;;;;0.40;0.40;;;5.70;99.90;5.60;100362.00;;;;4885124;28;106737;-67
2023/02/19 07:23:44;;;;;;;2.63;0.80;;;6.30;99.90;5.50;100372.00;;;;4885203;28;104099;-68
2023/02/19 07:26:15;;;;;;;1.47;1.07;;;6.40;99.90;5.50;100374.00;;;;4889950;28;87833;-66
2023/02/19 07:28:43;;;;;;;1.47;0.93;;;5.90;99.90;5.50;100379.00;;;;4899363;28;87997;-67
2023/02/19 07:31:09;;;;;;;2.53;0.90;;;5.70;99.90;5.50;100390.00;;;;4889310;28;89566;-68
2023/02/19 07:33:35;;;;;;;0.23;0.23;;;5.70;99.90;5.50;100406.00;;;;4888643;28;87160;-67
2023/02/19 07:36:00;;;;;;;6.83;0.40;;;5.60;99.90;5.40;100408.00;;;;4883494;28;109192;-68
2023/02/19 07:38:27;;;;;;;0.30;0.30;;;5.80;99.90;5.40;100409.00;;;;4885749;28;106452;-68
2023/02/19 07:40:55;;;;;;;0.20;0.20;;;5.50;99.90;5.30;100409.00;;;;4887155;28;102354;-68
2023/02/19 07:43:23;;;;;;;0.67;0.57;;;5.50;99.90;5.30;100427.00;;;;4900667;28;89807;-67
2023/02/19 07:45:49;;;;;;;0.53;0.30;;;5.70;99.90;5.30;100433.00;;;;4885142;28;87974;-69
2023/02/19 07:48:15;;;;;;;0.40;0.27;;;5.50;99.90;5.30;100436.00;;;;4013024;28;10000485;-68
2023/02/19 07:50:41;;;;;;;0.43;0.30;;;5.50;99.90;5.20;100450.00;;;;4892243;28;87813;-68
2023/02/19 07:53:07;;;;;;;0.40;0.20;;;5.40;99.90;5.20;100450.00;;;;4887601;28;87872;-67
2023/02/19 07:55:33;;;;;;;1.00;0.20;;;5.50;99.90;5.20;100457.00;;;;4888429;28;87853;-68
2023/02/19 07:57:59;;;;;;;0.20;0.20;;;5.30;99.90;5.20;100462.00;;;;4886292;28;87388;-69
2023/02/19 08:00:26;;;;;;;0.10;0.10;;;5.30;99.90;5.20;100476.00;;;;4886564;28;108847;-68
2023/02/19 08:02:58;;;;;;;0.73;0.50;;;5.70;99.90;5.10;100470.00;;;;4906601;28;98745;-67
2023/02/19 08:05:25;;;;;;;0.40;0.37;;;5.20;99.90;5.10;100473.00;;;;4883928;28;89060;-69
2023/02/19 08:07:51;;;;;;;0.43;0.43;;;5.20;99.90;5.10;100476.00;;;;4903219;28;98859;-66
2023/02/19 08:16:07;;;;;;;0.27;0.27;;;5.40;99.90;5.20;100515.00;;;;4905457;28;88208;-67
2023/02/19 08:18:33;;;;;;;0.53;0.40;;;5.40;99.90;5.10;100512.00;;;;4888514;28;88688;-67
2023/02/19 08:20:59;;;;;;;1.67;0.30;;;5.90;99.90;5.20;100511.00;;;;4910577;28;96449;-67
2023/02/19 08:23:27;;;;;;;0.10;0.10;;;5.40;99.90;5.10;100517.00;;;;4910390;28;117895;-67
2023/02/19 08:25:56;;;;;;;0.50;0.50;;;5.30;99.90;5.10;100527.00;;;;4908989;28;88128;-67
2023/02/19 08:28:22;;;;;;;0.30;0.20;;;5.30;99.90;5.10;100528.00;;;;4908133;28;87965;-68
2023/02/19 08:30:48;;;;;;;0.40;0.40;;;5.50;99.90;5.10;100542.00;;;;4889498;28;88912;-66
2023/02/19 08:33:18;;;;;;;0.50;0.43;;;6.00;99.90;5.10;100552.00;;;;4908255;28;88249;-67
2023/02/19 08:35:44;;;;;;;0.67;0.40;;;5.30;99.90;5.20;100554.00;;;;4909649;28;98484;-69
2023/02/19 08:38:15;;;;;;;0.40;0.30;;;5.30;99.90;5.20;100561.00;;;;4907678;28;88861;-67
2023/02/19 08:40:41;;;;;;;0.57;0.57;;;6.00;99.90;5.30;100570.00;;;;4890604;28;88056;-68
2023/02/19 08:43:10;;;;;;;0.50;0.37;;;5.30;99.90;5.30;100573.00;;;;4908773;28;88881;-67
2023/02/19 08:45:37;;;;;;;1.70;1.00;;;5.40;99.90;5.30;100578.00;;;;4907724;28;110345;-66
2023/02/19 08:48:04;;;;;;;3.67;1.00;;;5.50;99.90;5.30;100578.00;;;;4907872;28;87052;-68
2023/02/19 08:50:30;;;;;;;2.97;0.63;;;5.40;99.90;5.30;100578.00;;;;4910030;28;87793;-68
2023/02/19 08:52:58;;;;;;;2.23;0.40;;;6.00;99.90;5.30;100595.00;;;;4908220;28;117091;-67
2023/02/19 08:55:24;;;;;;;1.03;0.57;;;6.00;99.90;5.40;100594.00;;;;4906919;28;88842;-68
2023/02/19 08:57:50;;;;;;;0.73;0.73;;;5.60;99.90;5.40;100599.00;;;;4907371;28;101191;-68
2023/02/19 09:00:16;;;;;;;0.40;0.40;;;6.20;99.90;5.50;100607.00;;;;4905492;28;110337;-68
2023/02/19 09:02:42;;;;;;;1.43;0.80;;;5.60;99.90;5.60;100613.00;;;;4906325;28;89079;-70
2023/02/19 09:05:10;;;;;;;0.63;0.57;;;5.70;99.90;5.60;100621.00;;;;4884428;28;115720;-68
2023/02/19 09:07:35;;;;;;;0.63;0.63;;;5.70;99.90;5.60;100630.00;;;;4895125;28;103750;-66
2023/02/19 09:10:01;;;;;;;0.40;0.40;;;5.70;99.90;5.60;100631.00;;;;4906330;28;107616;-67
2023/02/19 09:12:27;;;;;;;0.30;0.20;;;5.80;99.90;5.70;100639.00;;;;4907834;28;87864;-67
2023/02/19 09:14:54;;;;;;;4.40;1.90;;;6.50;99.90;5.70;100644.00;;;;4908342;28;117144;-66
2023/02/19 09:17:20;;;;;;;10.60;5.33;;;5.90;99.90;5.80;100647.00;;;;4896397;28;88192;-68
2023/02/19 09:19:45;;;;;;;7.07;3.33;;;5.90;99.90;5.90;100645.00;;;;4041272;28;10000580;-66
2023/02/19 09:22:11;;;;;;;1.00;0.73;;;6.70;99.90;5.90;100648.00;;;;4905468;28;88204;-66
2023/02/19 09:24:37;;;;;;;1.90;1.33;;;6.00;99.90;5.90;100647.00;;;;4907536;28;88021;-66
2023/02/19 09:27:02;;;;;;;1.10;1.00;;;6.70;99.90;5.90;100642.00;;;;4906496;28;87956;-67
2023/02/19 09:29:28;;;;;;;0.77;0.50;;;6.60;99.90;5.90;100646.00;;;;4909107;28;87738;-68
2023/02/19 09:31:59;;;;;;;1.23;0.67;;;6.80;99.90;6.00;100651.00;;;;4894179;28;88009;-67
2023/02/19 09:34:27;;;;;;;0.87;0.80;;;6.20;99.90;6.00;100655.00;;;;4908496;28;100700;-67
2023/02/19 09:36:53;;;;;;;0.87;0.40;;;6.50;99.90;6.10;100661.00;;;;4905506;28;88053;-68
2023/02/19 09:39:19;;;;;;;0.60;0.60;;;6.20;99.90;6.10;100663.00;;;;4890906;28;105661;-67
2023/02/19 09:41:48;;;;;;;1.37;0.73;;;6.90;99.90;6.20;100657.00;;;;4909770;28;110119;-68
2023/02/19 09:44:28;;;;;;;1.37;0.73;;;6.30;99.90;6.20;100665.00;;;;4890689;28;88779;-66
2023/02/19 09:46:55;;;;;;;0.73;0.40;;;6.40;99.90;6.30;100672.00;;;;4890305;28;103005;-67
2023/02/19 09:49:35;;;;;;;1.60;0.60;;;6.70;99.90;6.50;100678.00;;;;4908053;28;107544;-68
2023/02/19 09:52:23;;;;;;;2.13;0.50;;;6.60;99.90;6.70;100681.00;;;;4894828;28;98933;-66
2023/02/19 09:54:49;;;;;;;1.07;0.53;;;6.70;99.90;6.80;100686.00;;;;4894187;28;87961;-66
2023/02/19 09:57:18;;;;;;;5.30;0.87;;;6.90;99.90;7.10;100691.00;;;;4911724;28;89740;-66
2023/02/19 10:00:04;;;;;;;1.17;0.40;;;7.30;99.90;7.30;100699.00;;;;4897548;28;87891;-66
2023/02/19 10:02:30;;;;;;;1.00;0.97;;;7.30;99.90;7.40;100707.00;;;;4890775;28;87190;-66
2023/02/19 10:04:56;;;;;;;2.93;0.77;;;7.50;99.90;7.60;100699.00;;;;4911241;28;87998;-68
2023/02/19 10:07:38;;;;;;;2.53;0.90;;;7.60;99.90;7.50;100719.00;;;;4913347;28;108826;-66
2023/02/19 10:10:31;;;;;;;3.40;1.10;;;7.70;99.90;7.40;100739.00;;;;4893878;28;89007;-67
2023/02/19 10:13:19;;;;;;;1.10;0.60;;;7.60;99.90;7.20;100737.00;;;;4890400;28;88130;-66
2023/02/19 10:15:52;;;;;;;0.77;0.60;;;7.50;99.90;7.20;100737.00;;;;4907908;28;87936;-66
2023/02/19 10:18:23;;;;;;;1.33;0.67;;;7.50;99.90;7.10;100753.00;;;;4907059;28;98037;-68
2023/02/19 10:20:51;;;;;;;0.77;0.77;;;7.30;99.90;7.10;100751.00;;;;4911390;28;88233;-66
2023/02/19 10:23:17;;;;;;;1.43;0.83;;;7.70;99.90;7.00;100753.00;;;;4891472;28;88417;-67
2023/02/19 10:25:57;;;;;;;0.97;0.60;;;7.20;99.90;7.00;100761.00;;;;4892670;28;99866;-67
2023/02/19 10:28:28;;;;;;;2.43;0.57;;;7.20;99.90;7.00;100767.00;;;;4906634;28;88660;-69
2023/02/19 10:30:58;;;;;;;0.70;0.40;;;7.80;99.90;7.00;100764.00;;;;4905925;28;111178;-68
2023/02/19 10:33:24;;;;;;;2.47;0.77;;;7.20;99.90;7.10;100770.00;;;;4904656;28;87852;-67
2023/02/19 10:36:04;;;;;;;0.70;0.70;;;7.30;99.90;7.20;100776.00;;;;4908416;28;88871;-67
2023/02/19 10:38:34;;;;;;;0.80;0.70;;;7.30;99.90;7.40;100779.00;;;;4897567;28;90988;-67
2023/02/19 10:41:07;;;;;;;2.57;0.77;;;7.60;99.90;7.40;100773.00;;;;4907452;28;88252;-67
2023/02/19 10:43:41;;;;;;;3.97;1.00;;;7.50;99.90;7.40;100772.00;;;;4890038;28;87985;-68
2023/02/19 10:46:36;;;;;;;0.40;0.30;;;8.10;99.90;7.40;100768.00;;;;4893850;28;87872;-68
2023/02/19 10:49:22;;;;;;;1.20;0.83;;;7.60;99.90;7.50;100775.00;;;;4906117;28;88970;-68
2023/02/19 10:51:48;;;;;;;0.63;0.50;;;7.60;99.90;7.70;100782.00;;;;4894494;28;89021;-68
2023/02/19 10:54:25;;;;;;;0.67;0.37;;;7.70;99.90;8.00;100786.00;;;;4909982;28;109826;-68
2023/02/19 10:56:51;;;;;;;1.10;0.70;;;8.00;99.90;8.40;100785.00;;;;4890612;28;87923;-69
2023/02/19 10:59:17;;;;;;;1.50;0.90;;;8.30;99.90;8.70;100796.00;;;;4905997;28;88224;-69
2023/02/19 11:01:57;;;;;;;0.47;0.43;;;8.60;99.90;9.10;100810.00;;;;4906655;28;108992;-68
2023/02/19 11:04:28;;;;;;;0.83;0.53;;;9.00;99.90;9.20;100810.00;;;;4908381;28;87866;-69
2023/02/19 11:06:54;;;;;;;0.50;0.50;;;9.20;99.90;9.20;100805.00;;;;4893533;28;87977;-68
2023/02/19 11:09:31;;;;;;;0.30;0.30;;;9.30;99.90;9.40;100809.00;;;;4904100;28;89192;-68
2023/02/19 11:11:58;;;;;;;0.80;0.50;;;9.40;99.90;9.60;100816.00;;;;4906355;28;95542;-69
2023/02/19 11:14:25;;;;;;;0.33;0.30;;;9.60;99.90;9.80;100816.00;;;;4907925;28;87773;-68
2023/02/19 11:17:00;;;;;;;1.77;0.67;;;9.80;99.90;9.80;100833.00;;;;4907473;28;106142;-69
2023/02/19 11:19:39;;;;;;;1.23;0.40;;;9.90;99.90;9.60;100835.00;;;;4908376;28;89638;-68
2023/02/19 11:22:32;;;;;;;0.20;0.20;;;9.80;99.90;9.40;100839.00;;;;4903515;28;88777;-68
2023/02/19 11:25:17;;;;;;;0.20;0.20;;;9.60;99.90;9.20;100832.00;;;;4904167;28;87899;-69
2023/02/19 11:28:16;;;;;;;1.10;0.73;;;9.50;99.90;9.10;100834.00;;;;4891303;28;100832;-69
2023/02/19 11:30:46;;;;;;;0.30;0.30;;;9.20;99.90;8.90;100843.00;;;;4892281;28;87962;-68
2023/02/19 11:33:15;;;;;;;4.20;1.03;;;9.10;99.90;8.80;100838.00;;;;4893805;28;88152;-68
2023/02/19 11:35:46;;;;;;;0.33;0.33;;;8.90;99.90;8.60;100845.00;;;;4907978;28;107522;-67
2023/02/19 11:38:15;;;;;;;1.70;0.40;;;8.80;99.90;8.60;100854.00;;;;4909958;28;88324;-68